createdAt,value
2018-01-27T00:00:41.182Z,0.00
2018-01-27T00:01:41.171Z,0.00
2018-01-27T00:02:41.160Z,0.00
2018-01-27T00:03:41.153Z,0.00
2018-01-27T00:04:41.153Z,0.00
2018-01-27T00:05:41.136Z,0.00
2018-01-27T00:06:41.127Z,0.00
2018-01-27T00:07:41.111Z,0.00
2018-01-27T00:08:41.108Z,0.00
2018-01-27T00:09:41.090Z,0.00
2018-01-27T00:10:41.085Z,0.00
2018-01-27T00:11:41.077Z,0.00
2018-01-27T00:12:41.064Z,0.00
2018-01-27T00:13:41.053Z,0.00
2018-01-27T00:14:41.043Z,0.00
2018-01-27T00:15:41.034Z,0.00
2018-01-27T00:16:41.040Z,0.00
2018-01-27T00:17:41.021Z,0.00
2018-01-27T00:18:41.005Z,0.00
2018-01-27T00:19:41.008Z,0.00
2018-01-27T00:20:40.980Z,0.00
2018-01-27T00:21:40.977Z,0.00
2018-01-27T00:22:40.962Z,0.00
2018-01-27T00:23:40.950Z,0.00
2018-01-27T00:24:40.945Z,0.00
2018-01-27T00:25:40.931Z,0.00
2018-01-27T00:26:40.924Z,0.00
2018-01-27T00:27:40.909Z,0.00
2018-01-27T00:28:40.905Z,0.00
2018-01-27T00:29:40.890Z,0.00
2018-01-27T00:30:40.885Z,0.00
2018-01-27T00:31:40.870Z,0.00
2018-01-27T00:32:40.864Z,0.00
2018-01-27T00:33:40.854Z,0.00
2018-01-27T00:34:40.840Z,0.00
2018-01-27T00:35:40.835Z,0.00
2018-01-27T00:36:40.823Z,0.00
2018-01-27T00:37:40.813Z,0.00
2018-01-27T00:38:40.809Z,0.00
2018-01-27T00:39:40.799Z,0.00
2018-01-27T00:40:40.813Z,0.00
2018-01-27T00:41:40.779Z,0.00
2018-01-27T00:42:42.111Z,0.00
2018-01-27T00:43:40.781Z,0.00
2018-01-27T00:44:40.749Z,0.00
2018-01-27T00:45:40.734Z,0.00
2018-01-27T00:46:40.722Z,0.00
2018-01-27T00:47:40.716Z,0.00
2018-01-27T00:48:40.706Z,0.00
2018-01-27T00:49:40.696Z,0.00
2018-01-27T00:50:40.689Z,0.00
2018-01-27T00:51:40.674Z,0.00
2018-01-27T00:52:40.662Z,0.00
2018-01-27T00:53:40.652Z,0.00
2018-01-27T00:54:40.642Z,0.00
2018-01-27T00:55:40.645Z,0.00
2018-01-27T00:56:40.624Z,0.00
2018-01-27T00:57:40.617Z,0.00
2018-01-27T00:58:40.613Z,0.00
2018-01-27T00:59:40.593Z,0.00
2018-01-27T01:00:40.587Z,0.00
2018-01-27T01:01:40.573Z,0.00
2018-01-27T01:02:40.561Z,0.00
2018-01-27T01:03:40.565Z,0.00
2018-01-27T01:04:40.544Z,0.00
2018-01-27T01:05:40.542Z,0.00
2018-01-27T01:06:40.537Z,0.00
2018-01-27T01:07:40.514Z,0.00
2018-01-27T01:08:40.505Z,0.00
2018-01-27T01:09:40.494Z,0.00
2018-01-27T01:10:40.485Z,0.00
2018-01-27T01:11:40.474Z,0.00
2018-01-27T01:12:40.460Z,0.00
2018-01-27T01:13:40.490Z,0.00
2018-01-27T01:14:40.443Z,0.00
2018-01-27T01:15:40.477Z,0.00
2018-01-27T01:16:40.423Z,0.00
2018-01-27T01:17:40.414Z,0.00
2018-01-27T01:18:40.427Z,0.00
2018-01-27T01:19:40.408Z,0.00
2018-01-27T01:20:40.387Z,0.00
2018-01-27T01:21:40.372Z,0.00
2018-01-27T01:22:40.363Z,0.00
2018-01-27T01:23:40.353Z,0.00
2018-01-27T01:24:40.342Z,0.00
2018-01-27T01:25:40.333Z,0.00
2018-01-27T01:26:40.320Z,0.00
2018-01-27T01:27:40.312Z,0.00
2018-01-27T01:28:40.302Z,0.00
2018-01-27T01:29:40.290Z,0.00
2018-01-27T01:30:40.281Z,0.00
2018-01-27T01:31:40.271Z,0.00
2018-01-27T01:32:40.255Z,0.00
2018-01-27T01:33:40.251Z,0.00
2018-01-27T01:34:40.237Z,0.00
2018-01-27T01:35:40.232Z,0.00
2018-01-27T01:36:40.226Z,0.00
2018-01-27T01:37:40.212Z,0.00
2018-01-27T01:38:40.200Z,0.00
2018-01-27T01:39:40.189Z,0.00
2018-01-27T01:40:40.176Z,0.00
2018-01-27T01:41:40.189Z,0.00
2018-01-27T01:42:40.163Z,0.00
2018-01-27T01:43:40.149Z,0.00
2018-01-27T01:44:40.140Z,0.00
2018-01-27T01:45:40.133Z,0.00
2018-01-27T01:46:40.117Z,0.00
2018-01-27T01:47:40.110Z,0.00
2018-01-27T01:48:40.103Z,0.00
2018-01-27T01:49:40.090Z,0.00
2018-01-27T01:50:40.082Z,0.00
2018-01-27T01:51:40.070Z,0.00
2018-01-27T01:52:40.059Z,0.00
2018-01-27T01:53:40.051Z,0.00
2018-01-27T01:54:40.042Z,0.00
2018-01-27T01:55:40.030Z,0.00
2018-01-27T01:56:40.020Z,0.00
2018-01-27T01:57:40.012Z,0.00
2018-01-27T01:58:39.994Z,0.00
2018-01-27T01:59:39.992Z,0.00
2018-01-27T02:00:39.983Z,0.00
2018-01-27T02:01:39.968Z,0.00
2018-01-27T02:02:39.961Z,0.00
2018-01-27T02:03:39.956Z,0.00
2018-01-27T02:04:39.939Z,0.00
2018-01-27T02:05:39.927Z,0.00
2018-01-27T02:06:39.918Z,0.00
2018-01-27T02:07:39.909Z,0.00
2018-01-27T02:08:39.896Z,0.00
2018-01-27T02:09:39.889Z,0.00
2018-01-27T02:10:39.876Z,0.00
2018-01-27T02:11:39.866Z,0.00
2018-01-27T02:12:39.874Z,0.00
2018-01-27T02:13:39.846Z,0.00
2018-01-27T02:14:39.835Z,0.00
2018-01-27T02:15:39.824Z,0.00
2018-01-27T02:16:39.816Z,0.00
2018-01-27T02:17:39.803Z,0.00
2018-01-27T02:18:39.793Z,0.00
2018-01-27T02:19:39.802Z,0.00
2018-01-27T02:20:39.776Z,0.00
2018-01-27T02:21:39.801Z,0.00
2018-01-27T02:22:39.756Z,0.00
2018-01-27T02:23:39.743Z,0.00
2018-01-27T02:24:39.736Z,0.00
2018-01-27T02:25:39.726Z,0.00
2018-01-27T02:26:39.717Z,0.00
2018-01-27T02:27:39.706Z,0.00
2018-01-27T02:28:39.695Z,0.00
2018-01-27T02:29:39.684Z,0.00
2018-01-27T02:30:39.674Z,0.00
2018-01-27T02:31:39.665Z,0.00
2018-01-27T02:32:39.657Z,0.00
2018-01-27T02:33:39.645Z,0.00
2018-01-27T02:34:39.635Z,0.00
2018-01-27T02:35:39.622Z,0.00
2018-01-27T02:36:39.613Z,0.00
2018-01-27T02:37:39.610Z,0.00
2018-01-27T02:38:39.600Z,0.00
2018-01-27T02:39:39.584Z,0.00
2018-01-27T02:40:39.576Z,0.00
2018-01-27T02:41:39.566Z,0.00
2018-01-27T02:42:39.554Z,0.00
2018-01-27T02:43:39.552Z,0.00
2018-01-27T02:44:39.535Z,0.00
2018-01-27T02:45:39.521Z,0.00
2018-01-27T02:46:39.513Z,0.00
2018-01-27T02:47:39.501Z,0.00
2018-01-27T02:48:39.494Z,0.00
2018-01-27T02:49:39.481Z,0.00
2018-01-27T02:50:39.472Z,0.00
2018-01-27T02:51:39.462Z,0.00
2018-01-27T02:52:39.453Z,0.00
2018-01-27T02:53:39.442Z,0.00
2018-01-27T02:54:39.433Z,0.00
2018-01-27T02:55:39.420Z,0.00
2018-01-27T02:56:39.415Z,0.00
2018-01-27T02:57:39.400Z,0.00
2018-01-27T02:58:39.391Z,0.00
2018-01-27T02:59:39.380Z,0.00
2018-01-27T03:00:39.370Z,0.00
2018-01-27T03:01:39.358Z,0.00
2018-01-27T03:02:39.348Z,0.00
2018-01-27T03:03:39.339Z,0.00
2018-01-27T03:04:39.326Z,0.00
2018-01-27T03:05:39.318Z,0.00
2018-01-27T03:06:39.309Z,0.00
2018-01-27T03:07:39.297Z,0.00
2018-01-27T03:08:39.291Z,0.00
2018-01-27T03:09:39.305Z,0.00
2018-01-27T03:10:39.266Z,0.00
2018-01-27T03:11:39.253Z,0.00
2018-01-27T03:12:39.249Z,0.00
2018-01-27T03:13:39.235Z,0.00
2018-01-27T03:14:39.226Z,0.00
2018-01-27T03:15:39.222Z,0.00
2018-01-27T03:16:39.206Z,0.00
2018-01-27T03:17:39.197Z,0.00
2018-01-27T03:18:39.184Z,0.00
2018-01-27T03:19:39.174Z,0.00
2018-01-27T03:20:39.162Z,0.00
2018-01-27T03:21:39.158Z,0.00
2018-01-27T03:22:39.145Z,0.00
2018-01-27T03:23:39.134Z,0.00
2018-01-27T03:24:39.125Z,0.00
2018-01-27T03:25:39.111Z,0.00
2018-01-27T03:26:39.103Z,0.00
2018-01-27T03:27:39.095Z,0.00
2018-01-27T03:28:39.092Z,0.00
2018-01-27T03:29:39.074Z,0.00
2018-01-27T03:30:39.063Z,0.00
2018-01-27T03:31:39.057Z,0.00
2018-01-27T03:32:39.042Z,0.00
2018-01-27T03:33:39.037Z,0.00
2018-01-27T03:34:39.023Z,0.00
2018-01-27T03:35:39.013Z,0.00
2018-01-27T03:36:39.002Z,0.00
2018-01-27T03:37:38.991Z,0.00
2018-01-27T03:38:38.979Z,0.00
2018-01-27T03:39:38.969Z,0.00
2018-01-27T03:40:38.968Z,0.00
2018-01-27T03:41:38.949Z,0.00
2018-01-27T03:42:38.938Z,0.00
2018-01-27T03:43:38.930Z,0.00
2018-01-27T03:44:38.922Z,0.00
2018-01-27T03:45:38.906Z,0.00
2018-01-27T03:46:38.896Z,0.00
2018-01-27T03:47:38.891Z,0.00
2018-01-27T03:48:38.879Z,0.00
2018-01-27T03:49:38.865Z,0.00
2018-01-27T03:50:38.864Z,0.00
2018-01-27T03:51:38.848Z,0.00
2018-01-27T03:52:38.851Z,0.00
2018-01-27T03:53:38.826Z,0.00
2018-01-27T03:54:38.814Z,0.00
2018-01-27T03:55:38.805Z,0.00
2018-01-27T03:56:38.798Z,0.00
2018-01-27T03:57:38.792Z,0.00
2018-01-27T03:58:38.773Z,0.00
2018-01-27T03:59:38.764Z,0.00
2018-01-27T04:00:38.758Z,0.00
2018-01-27T04:01:38.743Z,0.00
2018-01-27T04:02:38.734Z,0.00
2018-01-27T04:03:38.728Z,0.00
2018-01-27T04:04:38.714Z,0.00
2018-01-27T04:05:38.704Z,0.00
2018-01-27T04:06:38.690Z,0.00
2018-01-27T04:07:38.680Z,0.00
2018-01-27T04:08:38.678Z,0.00
2018-01-27T04:09:38.664Z,0.00
2018-01-27T04:10:38.650Z,0.00
2018-01-27T04:11:38.640Z,0.00
2018-01-27T04:12:38.627Z,0.00
2018-01-27T04:13:38.615Z,0.00
2018-01-27T04:14:38.610Z,0.00
2018-01-27T04:15:38.602Z,0.00
2018-01-27T04:16:38.587Z,0.00
2018-01-27T04:17:38.579Z,0.00
2018-01-27T04:18:38.562Z,0.00
2018-01-27T04:19:38.555Z,0.00
2018-01-27T04:20:38.555Z,0.00
2018-01-27T04:21:38.536Z,0.00
2018-01-27T04:22:38.526Z,0.00
2018-01-27T04:23:38.514Z,0.00
2018-01-27T04:24:38.506Z,0.00
2018-01-27T04:25:38.495Z,0.00
2018-01-27T04:26:38.478Z,0.00
2018-01-27T04:27:38.487Z,0.00
2018-01-27T04:28:38.464Z,0.00
2018-01-27T04:29:38.455Z,0.00
2018-01-27T04:30:38.439Z,0.00
2018-01-27T04:31:38.431Z,0.00
2018-01-27T04:32:38.421Z,0.00
2018-01-27T04:33:38.410Z,0.00
2018-01-27T04:34:38.399Z,0.00
2018-01-27T04:35:38.391Z,0.00
2018-01-27T04:36:38.379Z,0.00
2018-01-27T04:37:38.370Z,0.00
2018-01-27T04:40:11.048Z,0.00
2018-01-27T04:41:10.979Z,0.00
2018-01-27T04:43:04.567Z,0.00
2018-01-27T04:44:04.530Z,0.00
2018-01-27T04:45:58.699Z,0.00
2018-01-27T04:46:58.682Z,0.00
2018-01-27T04:48:52.329Z,0.00
2018-01-27T04:49:52.293Z,0.00
2018-01-27T04:51:46.770Z,0.00
2018-01-27T04:52:46.543Z,0.00
2018-01-27T04:53:46.531Z,0.00
2018-01-27T04:54:46.523Z,0.00
2018-01-27T04:55:46.510Z,0.00
2018-01-27T04:56:46.502Z,0.00
2018-01-27T04:57:46.490Z,0.00
2018-01-27T04:58:46.481Z,0.00
2018-01-27T04:59:46.466Z,0.00
2018-01-27T05:00:46.459Z,0.00
2018-01-27T05:01:46.448Z,0.00
2018-01-27T05:02:46.459Z,0.00
2018-01-27T05:03:46.428Z,0.00
2018-01-27T05:04:46.421Z,0.00
2018-01-27T05:05:46.410Z,0.00
2018-01-27T05:06:46.400Z,0.00
2018-01-27T05:07:46.386Z,0.00
2018-01-27T05:08:46.373Z,0.00
2018-01-27T05:09:46.365Z,0.00
2018-01-27T05:10:46.354Z,0.00
2018-01-27T05:11:46.344Z,0.00
2018-01-27T05:12:46.332Z,0.00
2018-01-27T05:13:46.324Z,0.00
2018-01-27T05:14:46.312Z,0.00
2018-01-27T05:15:46.298Z,0.00
2018-01-27T05:16:46.299Z,0.00
2018-01-27T05:17:46.282Z,0.00
2018-01-27T05:18:46.269Z,0.00
2018-01-27T05:19:46.260Z,0.00
2018-01-27T05:20:46.250Z,0.00
2018-01-27T05:21:46.238Z,0.00
2018-01-27T05:22:46.229Z,0.00
2018-01-27T05:23:46.222Z,0.00
2018-01-27T05:24:46.208Z,0.00
2018-01-27T05:25:46.201Z,0.00
2018-01-27T05:26:46.195Z,0.00
2018-01-27T05:27:46.179Z,0.00
2018-01-27T05:28:46.168Z,0.00
2018-01-27T05:29:46.196Z,0.00
2018-01-27T05:30:46.147Z,0.00
2018-01-27T05:31:46.137Z,0.00
2018-01-27T05:32:46.130Z,0.00
2018-01-27T05:33:46.120Z,0.00
2018-01-27T05:34:46.111Z,0.00
2018-01-27T05:35:46.110Z,0.00
2018-01-27T05:36:46.085Z,0.00
2018-01-27T05:37:46.071Z,0.00
2018-01-27T05:38:46.061Z,0.00
2018-01-27T05:39:46.058Z,0.00
2018-01-27T05:40:46.049Z,0.00
2018-01-27T05:41:46.034Z,0.00
2018-01-27T05:42:46.025Z,0.00
2018-01-27T05:43:46.028Z,0.00
2018-01-27T05:44:46.008Z,0.00
2018-01-27T05:45:45.990Z,0.00
2018-01-27T05:46:46.008Z,0.00
2018-01-27T05:47:45.981Z,0.00
2018-01-27T05:48:45.960Z,0.00
2018-01-27T05:49:45.953Z,0.00
2018-01-27T05:50:45.942Z,0.00
2018-01-27T05:51:45.930Z,0.00
2018-01-27T05:52:45.920Z,0.00
2018-01-27T05:53:45.909Z,0.00
2018-01-27T05:54:45.901Z,0.00
2018-01-27T05:55:45.891Z,0.00
2018-01-27T05:56:45.878Z,0.00
2018-01-27T05:57:45.871Z,0.00
2018-01-27T05:58:45.861Z,0.00
2018-01-27T05:59:45.854Z,0.00
2018-01-27T06:00:45.837Z,0.00
2018-01-27T06:01:45.832Z,0.00
2018-01-27T06:02:45.815Z,0.00
2018-01-27T06:03:45.813Z,0.00
2018-01-27T06:04:45.794Z,0.00
2018-01-27T06:05:45.787Z,0.00
2018-01-27T06:06:45.780Z,0.00
2018-01-27T06:07:45.769Z,0.00
2018-01-27T06:08:45.756Z,0.00
2018-01-27T06:09:45.746Z,0.00
2018-01-27T06:10:45.736Z,0.00
2018-01-27T06:11:45.723Z,0.00
2018-01-27T06:12:45.714Z,0.00
2018-01-27T06:13:45.707Z,0.00
2018-01-27T06:14:45.695Z,0.00
2018-01-27T06:15:45.685Z,0.00
2018-01-27T06:16:45.681Z,0.00
2018-01-27T06:17:45.666Z,0.00
2018-01-27T06:18:45.666Z,0.00
2018-01-27T06:19:45.642Z,0.00
2018-01-27T06:20:45.628Z,0.00
2018-01-27T06:21:45.624Z,0.00
2018-01-27T06:22:45.609Z,0.00
2018-01-27T06:23:45.600Z,0.00
2018-01-27T06:24:45.591Z,0.00
2018-01-27T06:25:45.583Z,0.00
2018-01-27T06:26:45.566Z,0.00
2018-01-27T06:27:45.560Z,0.00
2018-01-27T06:28:45.563Z,0.00
2018-01-27T06:29:45.540Z,0.00
2018-01-27T06:30:45.544Z,0.00
2018-01-27T06:31:45.524Z,0.00
2018-01-27T06:32:45.512Z,0.00
2018-01-27T06:33:45.493Z,0.00
2018-01-27T06:34:45.487Z,0.00
2018-01-27T06:35:45.495Z,0.00
2018-01-27T06:36:45.470Z,0.00
2018-01-27T06:37:45.464Z,0.00
2018-01-27T06:38:45.450Z,0.00
2018-01-27T06:39:45.441Z,0.00
2018-01-27T06:40:45.425Z,0.00
2018-01-27T06:41:45.415Z,0.00
2018-01-27T06:42:45.408Z,0.00
2018-01-27T06:43:45.403Z,0.00
2018-01-27T06:44:45.386Z,0.00
2018-01-27T06:45:45.373Z,0.00
2018-01-27T06:46:45.365Z,0.00
2018-01-27T06:47:45.354Z,0.00
2018-01-27T06:48:45.345Z,0.00
2018-01-27T06:49:45.332Z,4.00
2018-01-27T06:50:45.326Z,4.00
2018-01-27T06:51:45.313Z,0.00
2018-01-27T06:52:45.307Z,4.00
2018-01-27T06:53:45.301Z,4.00
2018-01-27T06:54:45.292Z,4.00
2018-01-27T06:55:45.272Z,4.00
2018-01-27T06:56:45.262Z,8.00
2018-01-27T06:57:45.250Z,8.00
2018-01-27T06:58:45.244Z,8.00
2018-01-27T06:59:45.226Z,4.00
2018-01-27T07:00:45.223Z,8.00
2018-01-27T07:01:45.212Z,8.00
2018-01-27T07:02:45.203Z,8.00
2018-01-27T07:03:45.192Z,12.00
2018-01-27T07:04:45.183Z,16.00
2018-01-27T07:05:45.171Z,20.00
2018-01-27T07:06:45.162Z,20.00
2018-01-27T07:07:45.151Z,24.00
2018-01-27T07:08:45.143Z,24.00
2018-01-27T07:09:45.132Z,32.00
2018-01-27T07:10:45.117Z,36.00
2018-01-27T07:11:45.112Z,40.00
2018-01-27T07:12:45.107Z,44.00
2018-01-27T07:13:45.091Z,44.00
2018-01-27T07:14:45.081Z,48.00
2018-01-27T07:15:45.066Z,52.00
2018-01-27T07:16:45.056Z,56.00
2018-01-27T07:17:45.053Z,68.00
2018-01-27T07:18:45.045Z,80.00
2018-01-27T07:19:45.027Z,92.00
2018-01-27T07:20:45.020Z,104.00
2018-01-27T07:21:45.011Z,112.00
2018-01-27T07:22:44.996Z,112.00
2018-01-27T07:23:44.988Z,116.00
2018-01-27T07:24:44.979Z,124.00
2018-01-27T07:25:44.967Z,132.00
2018-01-27T07:26:44.955Z,128.00
2018-01-27T07:27:44.947Z,128.00
2018-01-27T07:28:44.931Z,136.00
2018-01-27T07:29:44.926Z,152.00
2018-01-27T07:30:44.917Z,160.00
2018-01-27T07:31:44.906Z,168.00
2018-01-27T07:32:44.894Z,176.00
2018-01-27T07:33:44.886Z,192.00
2018-01-27T07:34:44.870Z,204.00
2018-01-27T07:35:44.864Z,208.00
2018-01-27T07:36:44.855Z,224.00
2018-01-27T07:37:44.846Z,252.00
2018-01-27T07:38:44.832Z,280.00
2018-01-27T07:39:44.827Z,288.00
2018-01-27T07:40:44.814Z,292.00
2018-01-27T07:41:44.805Z,304.00
2018-01-27T07:42:44.797Z,304.00
2018-01-27T07:43:44.782Z,316.00
2018-01-27T07:44:44.773Z,340.00
2018-01-27T07:45:44.768Z,364.00
2018-01-27T07:46:44.804Z,396.00
2018-01-27T07:47:44.741Z,448.00
2018-01-27T07:48:44.735Z,484.00
2018-01-27T07:49:44.724Z,500.00
2018-01-27T07:50:44.712Z,516.00
2018-01-27T07:51:44.696Z,556.00
2018-01-27T07:52:44.692Z,576.00
2018-01-27T07:53:44.689Z,560.00
2018-01-27T07:54:44.670Z,560.00
2018-01-27T07:55:44.661Z,600.00
2018-01-27T07:56:44.660Z,676.00
2018-01-27T07:57:44.641Z,728.00
2018-01-27T07:58:44.632Z,740.00
2018-01-27T07:59:44.621Z,736.00
2018-01-27T08:00:44.612Z,740.00
2018-01-27T08:01:44.602Z,744.00
2018-01-27T08:02:44.592Z,780.00
2018-01-27T08:03:45.374Z,844.00
2018-01-27T08:04:44.569Z,900.00
2018-01-27T08:05:44.560Z,900.00
2018-01-27T08:06:44.544Z,848.00
2018-01-27T08:07:44.539Z,784.00
2018-01-27T08:08:44.540Z,716.00
2018-01-27T08:09:44.583Z,716.00
2018-01-27T08:10:44.509Z,768.00
2018-01-27T08:11:44.498Z,856.00
2018-01-27T08:12:44.488Z,944.00
2018-01-27T08:13:44.476Z,964.00
2018-01-27T08:14:44.495Z,960.00
2018-01-27T08:15:44.462Z,992.00
2018-01-27T08:16:44.471Z,1044.00
2018-01-27T08:17:44.461Z,1084.00
2018-01-27T08:18:44.460Z,1108.00
2018-01-27T08:19:44.414Z,1136.00
2018-01-27T08:20:44.404Z,1180.00
2018-01-27T08:21:44.408Z,1216.00
2018-01-27T08:22:44.389Z,1264.00
2018-01-27T08:23:44.377Z,1284.00
2018-01-27T08:24:44.365Z,1272.00
2018-01-27T08:25:44.355Z,1272.00
2018-01-27T08:26:44.404Z,1304.00
2018-01-27T08:27:44.343Z,1268.00
2018-01-27T08:28:44.326Z,1236.00
2018-01-27T08:29:44.314Z,1264.00
2018-01-27T08:30:44.303Z,1276.00
2018-01-27T08:31:44.292Z,1268.00
2018-01-27T08:32:44.283Z,1260.00
2018-01-27T08:33:44.274Z,1248.00
2018-01-27T08:34:44.263Z,1252.00
2018-01-27T08:35:44.252Z,1260.00
2018-01-27T08:36:44.241Z,1344.00
2018-01-27T08:37:44.232Z,1472.00
2018-01-27T08:38:44.218Z,1660.00
2018-01-27T08:39:44.212Z,1760.00
2018-01-27T08:40:44.199Z,1836.00
2018-01-27T08:41:44.191Z,1832.00
2018-01-27T08:42:44.185Z,1892.00
2018-01-27T08:43:44.171Z,2028.00
2018-01-27T08:44:44.160Z,2200.00
2018-01-27T08:45:44.151Z,2324.00
2018-01-27T08:46:44.139Z,2412.00
2018-01-27T08:47:44.128Z,2452.00
2018-01-27T08:48:44.121Z,2436.00
2018-01-27T08:49:44.141Z,2336.00
2018-01-27T08:50:44.101Z,2384.00
2018-01-27T08:51:44.093Z,2468.00
2018-01-27T08:52:44.080Z,2520.00
2018-01-27T08:53:44.070Z,2652.00
2018-01-27T08:54:44.056Z,2888.00
2018-01-27T08:55:44.050Z,3172.00
2018-01-27T08:56:44.037Z,3324.00
2018-01-27T08:57:44.030Z,3468.00
2018-01-27T08:58:44.019Z,3656.00
2018-01-27T08:59:44.011Z,3896.00
2018-01-27T09:00:43.998Z,4124.00
2018-01-27T09:01:43.987Z,4272.00
2018-01-27T09:02:43.977Z,4368.00
2018-01-27T09:03:43.969Z,4452.00
2018-01-27T09:04:43.958Z,4576.00
2018-01-27T09:05:43.945Z,4596.00
2018-01-27T09:06:43.938Z,5328.00
2018-01-27T09:07:43.927Z,5236.00
2018-01-27T09:08:43.917Z,4824.00
2018-01-27T09:09:43.905Z,5012.00
2018-01-27T09:10:43.898Z,6776.00
2018-01-27T09:11:43.888Z,8256.00
2018-01-27T09:12:43.879Z,8012.00
2018-01-27T09:13:43.869Z,6084.00
2018-01-27T09:14:43.863Z,5388.00
2018-01-27T09:15:43.847Z,4840.00
2018-01-27T09:16:43.840Z,4700.00
2018-01-27T09:17:43.830Z,4580.00
2018-01-27T09:18:43.822Z,4312.00
2018-01-27T09:19:43.821Z,4152.00
2018-01-27T09:20:43.803Z,4200.00
2018-01-27T09:21:43.794Z,4496.00
2018-01-27T09:22:43.784Z,5012.00
2018-01-27T09:23:43.777Z,5440.00
2018-01-27T09:24:43.763Z,5684.00
2018-01-27T09:25:43.757Z,5888.00
2018-01-27T09:26:43.750Z,6288.00
2018-01-27T09:27:43.739Z,6624.00
2018-01-27T09:28:43.728Z,6868.00
2018-01-27T09:29:43.720Z,7016.00
2018-01-27T09:30:43.712Z,6932.00
2018-01-27T09:31:43.701Z,6828.00
2018-01-27T09:32:43.691Z,7036.00
2018-01-27T09:33:43.685Z,7984.00
2018-01-27T09:34:43.674Z,9024.00
2018-01-27T09:35:43.667Z,11628.00
2018-01-27T09:36:43.651Z,16384.00
2018-01-27T09:37:43.646Z,17536.00
2018-01-27T09:38:43.638Z,17984.00
2018-01-27T09:39:43.629Z,17312.00
2018-01-27T09:40:43.624Z,16512.00
2018-01-27T09:41:43.644Z,17440.00
2018-01-27T09:42:43.604Z,17312.00
2018-01-27T09:43:43.593Z,16352.00
2018-01-27T09:44:43.587Z,17664.00
2018-01-27T09:45:43.585Z,17984.00
2018-01-27T09:46:43.574Z,17696.00
2018-01-27T09:47:43.591Z,17536.00
2018-01-27T09:48:43.558Z,17088.00
2018-01-27T09:49:43.551Z,17984.00
2018-01-27T09:50:43.541Z,17472.00
2018-01-27T09:51:43.535Z,17504.00
2018-01-27T09:52:43.532Z,15552.00
2018-01-27T09:53:43.536Z,15968.00
2018-01-27T09:54:43.524Z,15808.00
2018-01-27T09:55:43.515Z,15616.00
2018-01-27T09:56:43.512Z,14724.00
2018-01-27T09:57:43.509Z,13472.00
2018-01-27T09:58:43.498Z,15168.00
2018-01-27T09:59:43.487Z,15520.00
2018-01-27T10:00:43.487Z,14624.00
2018-01-27T10:01:43.485Z,12872.00
2018-01-27T10:02:43.482Z,13276.00
2018-01-27T10:03:43.476Z,15168.00
2018-01-27T10:04:43.476Z,17376.00
2018-01-27T10:05:43.470Z,16928.00
2018-01-27T10:06:43.466Z,18112.00
2018-01-27T10:07:43.460Z,18560.00
2018-01-27T10:08:43.450Z,19136.00
2018-01-27T10:09:43.450Z,18688.00
2018-01-27T10:10:43.448Z,19424.00
2018-01-27T10:11:43.446Z,20512.00
2018-01-27T10:12:43.442Z,20640.00
2018-01-27T10:13:43.437Z,20384.00
2018-01-27T10:14:43.436Z,19104.00
2018-01-27T10:15:43.431Z,20416.00
2018-01-27T10:16:43.429Z,10768.00
2018-01-27T10:17:43.452Z,20064.00
2018-01-27T10:18:43.423Z,11132.00
2018-01-27T10:19:43.415Z,9896.00
2018-01-27T10:20:43.413Z,10152.00
2018-01-27T10:21:43.411Z,9196.00
2018-01-27T10:22:43.425Z,8960.00
2018-01-27T10:23:43.410Z,10068.00
2018-01-27T10:24:43.403Z,10264.00
2018-01-27T10:25:43.478Z,10312.00
2018-01-27T10:26:43.396Z,10488.00
2018-01-27T10:27:43.404Z,10652.00
2018-01-27T10:28:43.387Z,10948.00
2018-01-27T10:29:43.381Z,11108.00
2018-01-27T10:30:43.377Z,8792.00
2018-01-27T10:31:43.379Z,9348.00
2018-01-27T10:32:43.396Z,7828.00
2018-01-27T10:33:43.382Z,8416.00
2018-01-27T10:34:43.362Z,9912.00
2018-01-27T10:35:43.354Z,11280.00
2018-01-27T10:36:43.348Z,10508.00
2018-01-27T10:37:43.342Z,12100.00
2018-01-27T10:38:43.337Z,9356.00
2018-01-27T10:39:43.330Z,7544.00
2018-01-27T10:40:43.329Z,6684.00
2018-01-27T10:41:43.322Z,6956.00
2018-01-27T10:42:43.313Z,7496.00
2018-01-27T10:43:43.307Z,7212.00
2018-01-27T10:44:43.295Z,7472.00
2018-01-27T10:45:43.301Z,10108.00
2018-01-27T10:46:43.312Z,13308.00
2018-01-27T10:47:43.280Z,29312.00
2018-01-27T10:48:43.270Z,20480.00
2018-01-27T10:49:43.266Z,11196.00
2018-01-27T10:50:43.256Z,11472.00
2018-01-27T10:51:43.255Z,14444.00
2018-01-27T10:52:43.244Z,13964.00
2018-01-27T10:53:43.237Z,15076.00
2018-01-27T10:54:43.231Z,13308.00
2018-01-27T10:55:43.231Z,6464.00
2018-01-27T10:56:43.217Z,4644.00
2018-01-27T10:57:43.210Z,6640.00
2018-01-27T10:58:43.209Z,7760.00
2018-01-27T10:59:43.201Z,6816.00
2018-01-27T11:00:43.192Z,5536.00
2018-01-27T11:01:43.182Z,5508.00
2018-01-27T11:02:43.180Z,5040.00
2018-01-27T11:03:43.170Z,4244.00
2018-01-27T11:04:43.171Z,4124.00
2018-01-27T11:05:43.154Z,3884.00
2018-01-27T11:06:43.149Z,3620.00
2018-01-27T11:07:43.142Z,3552.00
2018-01-27T11:08:43.131Z,3676.00
2018-01-27T11:09:43.124Z,3700.00
2018-01-27T11:10:43.118Z,3568.00
2018-01-27T11:11:43.106Z,3528.00
2018-01-27T11:12:43.101Z,3828.00
2018-01-27T11:13:43.124Z,4164.00
2018-01-27T11:14:43.083Z,4272.00
2018-01-27T11:15:43.082Z,3880.00
2018-01-27T11:16:43.077Z,3452.00
2018-01-27T11:17:43.060Z,3552.00
2018-01-27T11:18:43.060Z,3424.00
2018-01-27T11:19:45.846Z,2900.00
2018-01-27T11:20:44.802Z,2720.00
2018-01-27T11:21:43.022Z,2704.00
2018-01-27T11:22:43.055Z,2764.00
2018-01-27T11:23:43.010Z,2900.00
2018-01-27T11:24:43.000Z,3068.00
2018-01-27T11:25:43.015Z,3340.00
2018-01-27T11:26:42.983Z,4628.00
2018-01-27T11:27:42.977Z,5140.00
2018-01-27T11:28:42.964Z,6264.00
2018-01-27T11:29:42.954Z,7480.00
2018-01-27T11:30:42.951Z,6812.00
2018-01-27T11:31:42.933Z,5780.00
2018-01-27T11:32:42.985Z,5252.00
2018-01-27T11:33:42.923Z,5264.00
2018-01-27T11:34:42.911Z,5120.00
2018-01-27T11:35:42.899Z,5532.00
2018-01-27T11:36:42.926Z,5356.00
2018-01-27T11:37:42.902Z,4896.00
2018-01-27T11:38:42.888Z,4664.00
2018-01-27T11:39:42.870Z,4196.00
2018-01-27T11:40:42.874Z,3856.00
2018-01-27T11:41:42.847Z,3764.00
2018-01-27T11:42:42.838Z,3456.00
2018-01-27T11:43:42.854Z,3488.00
2018-01-27T11:44:42.832Z,3588.00
2018-01-27T11:45:42.834Z,3448.00
2018-01-27T11:46:42.805Z,3468.00
2018-01-27T11:47:42.798Z,3528.00
2018-01-27T11:48:42.783Z,3920.00
2018-01-27T11:49:42.774Z,4164.00
2018-01-27T11:50:42.784Z,4264.00
2018-01-27T11:51:42.758Z,4888.00
2018-01-27T11:52:42.762Z,6276.00
2018-01-27T11:53:42.742Z,6804.00
2018-01-27T11:54:42.740Z,6480.00
2018-01-27T11:55:42.719Z,5912.00
2018-01-27T11:56:42.714Z,5540.00
2018-01-27T11:57:42.849Z,5392.00
2018-01-27T11:58:42.694Z,5544.00
2018-01-27T11:59:42.686Z,6508.00
2018-01-27T12:00:42.676Z,8724.00
2018-01-27T12:01:42.664Z,10700.00
2018-01-27T12:02:42.659Z,10936.00
2018-01-27T12:03:42.656Z,8688.00
2018-01-27T12:04:42.688Z,7024.00
2018-01-27T12:05:42.630Z,6676.00
2018-01-27T12:06:42.629Z,6780.00
2018-01-27T12:07:42.610Z,6560.00
2018-01-27T12:08:42.604Z,6280.00
2018-01-27T12:09:42.613Z,5956.00
2018-01-27T12:10:42.596Z,5624.00
2018-01-27T12:11:42.579Z,5180.00
2018-01-27T12:12:42.571Z,4624.00
2018-01-27T12:13:42.563Z,4188.00
2018-01-27T12:14:42.547Z,4824.00
2018-01-27T12:15:42.545Z,5440.00
2018-01-27T12:16:42.540Z,5364.00
2018-01-27T12:17:42.523Z,5500.00
2018-01-27T12:18:42.516Z,5952.00
2018-01-27T12:19:42.506Z,5920.00
2018-01-27T12:20:42.513Z,6144.00
2018-01-27T12:21:42.491Z,5928.00
2018-01-27T12:22:42.487Z,5580.00
2018-01-27T12:23:42.472Z,6016.00
2018-01-27T12:24:42.465Z,6584.00
2018-01-27T12:25:42.458Z,7160.00
2018-01-27T12:26:42.448Z,6860.00
2018-01-27T12:27:42.435Z,6492.00
2018-01-27T12:28:42.425Z,6132.00
2018-01-27T12:29:42.419Z,5752.00
2018-01-27T12:30:42.418Z,5620.00
2018-01-27T12:31:42.399Z,5164.00
2018-01-27T12:32:42.391Z,4608.00
2018-01-27T12:33:42.380Z,4544.00
2018-01-27T12:34:42.380Z,4680.00
2018-01-27T12:35:42.364Z,4636.00
2018-01-27T12:36:42.358Z,4504.00
2018-01-27T12:37:42.370Z,4624.00
2018-01-27T12:38:42.340Z,4340.00
2018-01-27T12:39:42.331Z,4108.00
2018-01-27T12:40:42.324Z,3580.00
2018-01-27T12:41:42.310Z,3304.00
2018-01-27T12:42:42.305Z,3912.00
2018-01-27T12:43:42.311Z,4072.00
2018-01-27T12:44:42.291Z,4248.00
2018-01-27T12:45:42.280Z,4500.00
2018-01-27T12:46:42.267Z,3904.00
2018-01-27T12:47:42.262Z,3120.00
2018-01-27T12:48:42.247Z,2696.00
2018-01-27T12:49:42.284Z,3596.00